Time;durP1;ratioP1;P1;durP2;ratioP2;P2;SDS_P1;SDS_P2;PMS_P1;PMS_P2;Temp;Humidity;BMP_temperature;BMP_pressure;BME280_temperature;BME280_humidity;BME280_pressure;Samples;Min_cycle;Max_cycle;Signal;HPM_P1;HPM_P2
2023/03/15 00:00:01;;;;;;;;;;;2.50;99.90;;;;;;5045145;28;20142;-70
2023/03/15 00:02:27;;;;;;;;;;;2.50;99.90;;;;;;5045132;28;19928;-70
2023/03/15 00:04:54;;;;;;;;;;;2.60;99.90;;;;;;5045017;28;19984;-70
2023/03/15 00:07:24;;;;;;;;;;;2.50;99.90;;;;;;5044513;28;19921;-70
2023/03/15 00:09:51;;;;;;;;;;;2.50;99.90;;;;;;5044804;28;19976;-70
2023/03/15 00:12:17;;;;;;;;;;;2.40;99.90;;;;;;5044788;28;19928;-70
2023/03/15 00:14:44;;;;;;;;;;;2.40;99.90;;;;;;5044657;28;19984;-70
2023/03/15 00:17:12;;;;;;;;;;;2.40;99.90;;;;;;5044045;28;19992;-70
2023/03/15 00:19:39;;;;;;;;;;;2.40;99.90;;;;;;5044687;28;19921;-70
2023/03/15 00:22:05;;;;;;;;;;;2.30;99.90;;;;;;5044611;28;19956;-70
2023/03/15 00:24:32;;;;;;;;;;;2.30;99.90;;;;;;5044431;28;20209;-70
2023/03/15 00:26:58;;;;;;;;;;;2.20;99.90;;;;;;5043595;28;19964;-70
2023/03/15 00:29:25;;;;;;;;;;;2.20;99.90;;;;;;5044553;28;19975;-70
2023/03/15 00:31:54;;;;;;;;;;;2.10;99.90;;;;;;5043648;28;20917;-70
2023/03/15 00:34:25;;;;;;;;;;;2.10;99.90;;;;;;5064477;28;19984;-70
2023/03/15 00:36:54;;;;;;;;;;;2.10;99.90;;;;;;5061097;28;19925;-69
2023/03/15 00:39:20;;;;;;;;;;;2.10;99.90;;;;;;5064462;28;19921;-70
2023/03/15 00:41:47;;;;;;;;;;;2.00;99.90;;;;;;5064371;28;19920;-70
2023/03/15 00:44:14;;;;;;;;;;;2.00;99.90;;;;;;5063843;28;19920;-70
2023/03/15 00:46:40;;;;;;;;;;;1.90;99.90;;;;;;5063428;28;20001;-70
2023/03/15 00:49:07;;;;;;;;;;;1.90;99.90;;;;;;5064386;28;19952;-70
2023/03/15 00:51:36;;;;;;;;;;;1.90;99.90;;;;;;5064130;28;20163;-70
2023/03/15 00:54:03;;;;;;;;;;;1.90;99.90;;;;;;5063780;28;19922;-69
2023/03/15 00:56:29;;;;;;;;;;;1.90;99.90;;;;;;5063148;28;19962;-70
2023/03/15 00:58:57;;;;;;;;;;;1.80;99.90;;;;;;5064175;28;19921;-70
2023/03/15 01:01:25;;;;;;;;;;;1.80;99.90;;;;;;5064041;28;19921;-70
2023/03/15 01:03:52;;;;;;;;;;;1.80;99.90;;;;;;5064148;28;19956;-70
2023/03/15 01:06:20;;;;;;;;;;;1.80;99.90;;;;;;5062952;28;20089;-70
2023/03/15 01:08:48;;;;;;;;;;;1.80;99.90;;;;;;5064084;28;19963;-70
2023/03/15 01:11:16;;;;;;;;;;;1.80;99.90;;;;;;5063504;28;19921;-70
2023/03/15 01:13:43;;;;;;;;;;;1.80;99.90;;;;;;5063994;28;19943;-70
2023/03/15 01:16:11;;;;;;;;;;;1.90;99.90;;;;;;5063040;28;19921;-70
2023/03/15 01:18:38;;;;;;;;;;;1.90;99.90;;;;;;5063799;28;19920;-70
2023/03/15 01:21:06;;;;;;;;;;;1.90;99.90;;;;;;5063961;28;19924;-70
2023/03/15 01:23:32;;;;;;;;;;;1.90;99.90;;;;;;5063693;28;19921;-70
2023/03/15 01:26:01;;;;;;;;;;;1.90;99.90;;;;;;5062968;28;19984;-70
2023/03/15 01:28:28;;;;;;;;;;;1.90;99.90;;;;;;5063604;28;19920;-70
2023/03/15 01:30:54;;;;;;;;;;;1.90;99.90;;;;;;5056878;28;19943;-70
2023/03/15 01:33:21;;;;;;;;;;;1.90;99.90;;;;;;5043482;28;19988;-70
2023/03/15 01:35:48;;;;;;;;;;;1.90;99.90;;;;;;5043350;28;19927;-70
2023/03/15 01:38:15;;;;;;;;;;;1.90;99.90;;;;;;5052836;28;20001;-70
2023/03/15 01:40:42;;;;;;;;;;;1.90;99.90;;;;;;5063222;28;19921;-70
2023/03/15 01:43:17;;;;;;;;;;;1.90;99.90;;;;;;5063390;28;19943;-70
2023/03/15 01:45:54;;;;;;;;;;;2.00;99.90;;;;;;5063258;28;19920;-70
2023/03/15 01:48:22;;;;;;;;;;;1.90;99.90;;;;;;5062838;28;20228;-70
2023/03/15 01:50:49;;;;;;;;;;;1.80;99.90;;;;;;5063523;28;19956;-70
2023/03/15 01:53:16;;;;;;;;;;;1.90;99.90;;;;;;5063236;28;19956;-70
2023/03/15 01:55:43;;;;;;;;;;;1.90;99.90;;;;;;5062836;28;19921;-70
2023/03/15 01:58:10;;;;;;;;;;;1.90;99.90;;;;;;5066753;28;20116;-70
2023/03/15 02:00:38;;;;;;;;;;;2.00;99.90;;;;;;5067161;28;19921;-70
2023/03/15 02:03:07;;;;;;;;;;;1.90;99.90;;;;;;5067190;28;19925;-71
2023/03/15 02:05:37;;;;;;;;;;;2.00;99.90;;;;;;5067042;28;19928;-70
2023/03/15 02:08:04;;;;;;;;;;;2.00;99.90;;;;;;5067074;28;19925;-69
2023/03/15 02:10:33;;;;;;;;;;;2.00;99.90;;;;;;5067263;28;19999;-70
2023/03/15 02:13:00;;;;;;;;;;;2.00;99.90;;;;;;5066866;28;19921;-70
2023/03/15 02:15:27;;;;;;;;;;;2.00;99.90;;;;;;5067035;28;20000;-69
2023/03/15 02:17:55;;;;;;;;;;;2.00;99.90;;;;;;5066039;28;20302;-69
2023/03/15 02:20:26;;;;;;;;;;;1.90;99.90;;;;;;5066783;28;19920;-70
2023/03/15 02:22:54;;;;;;;;;;;1.90;99.90;;;;;;5066816;28;19944;-70
2023/03/15 02:25:25;;;;;;;;;;;1.90;99.90;;;;;;5066525;28;19920;-70
2023/03/15 02:27:53;;;;;;;;;;;1.90;99.90;;;;;;5066240;28;19956;-70
2023/03/15 02:30:19;;;;;;;;;;;2.00;99.90;;;;;;5066607;28;19983;-70
2023/03/15 02:32:46;;;;;;;;;;;1.90;99.90;;;;;;5066610;28;19925;-69
2023/03/15 02:35:22;;;;;;;;;;;1.90;99.90;;;;;;5066190;28;19927;-70
2023/03/15 02:37:48;;;;;;;;;;;1.90;99.90;;;;;;5065643;28;19920;-70
2023/03/15 02:40:17;;;;;;;;;;;1.90;99.90;;;;;;5064216;28;19971;-70
2023/03/15 02:42:44;;;;;;;;;;;1.90;99.90;;;;;;5047662;28;19928;-70
2023/03/15 02:45:12;;;;;;;;;;;1.80;99.90;;;;;;5066493;28;19927;-70
2023/03/15 02:47:39;;;;;;;;;;;1.80;99.90;;;;;;5065847;28;19921;-71
2023/03/15 02:50:07;;;;;;;;;;;1.80;99.90;;;;;;5066600;28;19931;-70
2023/03/15 02:52:33;;;;;;;;;;;1.70;99.90;;;;;;5066251;28;20124;-70
2023/03/15 02:55:01;;;;;;;;;;;1.70;99.90;;;;;;5066189;28;20225;-70
2023/03/15 02:57:27;;;;;;;;;;;1.60;99.90;;;;;;5066033;28;19921;-70
2023/03/15 02:59:54;;;;;;;;;;;1.50;99.90;;;;;;5066411;28;19979;-70
2023/03/15 03:02:23;;;;;;;;;;;1.40;99.90;;;;;;5066059;28;19921;-70
2023/03/15 03:04:51;;;;;;;;;;;1.30;99.90;;;;;;5066279;28;19927;-70
2023/03/15 03:07:18;;;;;;;;;;;1.30;99.90;;;;;;5065211;28;19921;-70
2023/03/15 03:09:44;;;;;;;;;;;1.20;99.90;;;;;;5066061;28;19927;-70
2023/03/15 03:12:11;;;;;;;;;;;1.20;99.90;;;;;;5065974;28;20177;-70
2023/03/15 03:14:38;;;;;;;;;;;1.10;99.90;;;;;;5065713;28;20216;-70
2023/03/15 03:17:04;;;;;;;;;;;1.10;99.90;;;;;;5065208;28;19984;-69
2023/03/15 03:19:32;;;;;;;;;;;1.10;99.90;;;;;;5066046;28;19952;-69
2023/03/15 03:21:59;;;;;;;;;;;1.00;99.90;;;;;;5065703;28;19921;-70
2023/03/15 03:24:25;;;;;;;;;;;1.00;99.90;;;;;;5065732;28;19956;-70
2023/03/15 03:26:56;;;;;;;;;;;1.00;99.90;;;;;;5065047;28;19975;-69
2023/03/15 03:29:23;;;;;;;;;;;0.90;99.90;;;;;;5065784;28;19921;-70
2023/03/15 03:31:50;;;;;;;;;;;0.90;99.90;;;;;;5065903;28;19920;-69
2023/03/15 03:34:17;;;;;;;;;;;0.90;99.90;;;;;;5065519;28;19920;-69
2023/03/15 03:36:45;;;;;;;;;;;0.90;99.90;;;;;;5064584;28;19928;-69
2023/03/15 03:39:11;;;;;;;;;;;0.90;99.90;;;;;;5065416;28;19921;-70
2023/03/15 03:41:38;;;;;;;;;;;0.90;99.90;;;;;;5065473;28;19925;-70
2023/03/15 03:44:05;;;;;;;;;;;0.90;99.90;;;;;;5065319;28;19988;-70
2023/03/15 03:46:32;;;;;;;;;;;0.90;99.90;;;;;;5064851;28;19931;-70
2023/03/15 03:48:59;;;;;;;;;;;1.00;99.90;;;;;;5065658;28;19943;-69
2023/03/15 03:51:25;;;;;;;;;;;1.00;99.90;;;;;;5065441;28;19920;-70
2023/03/15 03:53:53;;;;;;;;;;;1.00;99.90;;;;;;5065447;28;19921;-70
2023/03/15 03:56:20;;;;;;;;;;;1.00;99.90;;;;;;5064619;28;20090;-70
2023/03/15 03:58:47;;;;;;;;;;;1.00;99.90;;;;;;5065020;28;20113;-70
2023/03/15 04:01:13;;;;;;;;;;;1.00;99.90;;;;;;5065099;28;19960;-70
2023/03/15 04:03:40;;;;;;;;;;;1.00;99.90;;;;;;5065067;28;19983;-70
2023/03/15 04:06:06;;;;;;;;;;;0.90;99.90;;;;;;5064660;28;19956;-70
2023/03/15 04:08:33;;;;;;;;;;;0.90;99.90;;;;;;5065091;28;19984;-70
2023/03/15 04:11:02;;;;;;;;;;;0.90;99.90;;;;;;5064855;28;19980;-70
2023/03/15 04:13:29;;;;;;;;;;;0.90;99.90;;;;;;5064678;28;19963;-70
2023/03/15 04:15:56;;;;;;;;;;;0.90;99.90;;;;;;5044589;28;19927;-70
2023/03/15 04:18:23;;;;;;;;;;;0.90;99.90;;;;;;5043939;28;19921;-70
2023/03/15 04:20:53;;;;;;;;;;;0.90;99.90;;;;;;5044644;28;19921;-70
2023/03/15 04:23:20;;;;;;;;;;;0.90;99.90;;;;;;5044644;28;20255;-70
2023/03/15 04:25:48;;;;;;;;;;;1.00;99.90;;;;;;5044228;28;20236;-69
2023/03/15 04:28:16;;;;;;;;;;;1.00;99.90;;;;;;5061333;28;19921;-70
2023/03/15 04:30:42;;;;;;;;;;;1.00;99.90;;;;;;5064450;28;20191;-70
2023/03/15 04:33:09;;;;;;;;;;;0.90;99.90;;;;;;5064440;28;19921;-70
2023/03/15 04:35:37;;;;;;;;;;;0.90;99.90;;;;;;5064583;28;19927;-70
2023/03/15 04:38:04;;;;;;;;;;;0.90;99.90;;;;;;5063545;28;19966;-70
2023/03/15 04:40:33;;;;;;;;;;;0.80;99.90;;;;;;5064623;28;19955;-70
2023/03/15 04:43:01;;;;;;;;;;;0.80;99.90;;;;;;5044605;28;19928;-70
2023/03/15 04:45:30;;;;;;;;;;;0.80;99.90;;;;;;5044487;28;20108;-70
2023/03/15 04:47:57;;;;;;;;;;;0.80;99.90;;;;;;5043807;28;19921;-70
2023/03/15 04:50:24;;;;;;;;;;;0.80;99.90;;;;;;5044508;28;19988;-70
2023/03/15 04:52:51;;;;;;;;;;;0.80;99.90;;;;;;5062032;28;20263;-70
2023/03/15 04:55:17;;;;;;;;;;;0.80;99.90;;;;;;5064227;28;20023;-71
2023/03/15 04:57:44;;;;;;;;;;;0.70;99.90;;;;;;5063058;28;20208;-68
2023/03/15 05:00:11;;;;;;;;;;;0.70;99.90;;;;;;5064098;28;19952;-69
2023/03/15 05:02:40;;;;;;;;;;;0.70;99.90;;;;;;5063709;28;20230;-69
2023/03/15 05:05:07;;;;;;;;;;;0.70;99.90;;;;;;5063934;28;20116;-69
2023/03/15 05:07:34;;;;;;;;;;;0.70;99.90;;;;;;5063152;28;19927;-69
2023/03/15 05:10:01;;;;;;;;;;;0.60;99.90;;;;;;5064042;28;19948;-69
2023/03/15 05:12:28;;;;;;;;;;;0.60;99.90;;;;;;5063795;28;19978;-69
2023/03/15 05:14:58;;;;;;;;;;;0.50;99.90;;;;;;5063194;28;19959;-69
2023/03/15 05:17:24;;;;;;;;;;;0.50;99.90;;;;;;5063071;28;19943;-69
2023/03/15 05:19:52;;;;;;;;;;;0.50;99.90;;;;;;5063907;28;20112;-69
2023/03/15 05:22:24;;;;;;;;;;;0.50;99.90;;;;;;5063934;28;19921;-69
2023/03/15 05:24:51;;;;;;;;;;;0.50;99.90;;;;;;5063728;28;19920;-69
2023/03/15 05:27:17;;;;;;;;;;;0.50;99.90;;;;;;5062778;28;20246;-69
2023/03/15 05:29:45;;;;;;;;;;;0.50;99.90;;;;;;5064008;28;19952;-69
2023/03/15 05:32:11;;;;;;;;;;;0.50;99.90;;;;;;5070454;28;20102;-69
2023/03/15 05:34:38;;;;;;;;;;;0.50;99.90;;;;;;5070030;28;20243;-70
2023/03/15 05:37:06;;;;;;;;;;;0.50;99.90;;;;;;5066040;28;19949;-69
2023/03/15 05:39:33;;;;;;;;;;;0.50;99.90;;;;;;5050101;28;19921;-69
2023/03/15 05:42:00;;;;;;;;;;;0.50;99.90;;;;;;5050321;28;20004;-68
2023/03/15 05:44:27;;;;;;;;;;;0.40;99.90;;;;;;5050288;28;19928;-68
2023/03/15 05:46:53;;;;;;;;;;;0.50;99.90;;;;;;5059678;28;19984;-68
2023/03/15 05:49:20;;;;;;;;;;;0.40;99.90;;;;;;5070110;28;19988;-69
2023/03/15 05:51:47;;;;;;;;;;;0.50;99.90;;;;;;5063712;28;20205;-69
2023/03/15 05:54:15;;;;;;;;;;;0.50;99.90;;;;;;5050153;28;19993;-69
2023/03/15 05:56:41;;;;;;;;;;;0.50;99.90;;;;;;5049143;28;19992;-68
2023/03/15 05:59:08;;;;;;;;;;;0.50;99.90;;;;;;5049852;28;19921;-69
2023/03/15 06:01:34;;;;;;;;;;;0.40;99.90;;;;;;5049874;28;19988;-69
2023/03/15 06:04:01;;;;;;;;;;;0.40;99.90;;;;;;5049723;28;19928;-68
2023/03/15 06:06:28;;;;;;;;;;;0.40;99.90;;;;;;5049323;28;19952;-69
2023/03/15 06:08:54;;;;;;;;;;;0.40;99.90;;;;;;5050011;28;19984;-68
2023/03/15 06:11:22;;;;;;;;;;;0.30;99.90;;;;;;5049973;28;19921;-68
2023/03/15 06:13:49;;;;;;;;;;;0.30;99.90;;;;;;5059158;28;19921;-69
2023/03/15 06:16:18;;;;;;;;;;;0.30;99.90;;;;;;5054814;28;19989;-69
2023/03/15 06:18:44;;;;;;;;;;;0.30;99.90;;;;;;5049952;28;19921;-70
2023/03/15 06:21:11;;;;;;;;;;;0.30;99.90;;;;;;5049967;28;19988;-67
2023/03/15 06:23:37;;;;;;;;;;;0.40;99.90;;;;;;5069690;28;19956;-72
2023/03/15 06:26:04;;;;;;;;;;;0.40;99.90;;;;;;5068980;28;19921;-71
2023/03/15 06:28:32;;;;;;;;;;;0.30;99.90;;;;;;5069766;28;19988;-69
2023/03/15 06:30:59;;;;;;;;;;;0.30;99.90;;;;;;5068025;28;19927;-70
2023/03/15 06:33:26;;;;;;;;;;;0.40;99.90;;;;;;5069937;28;19925;-70
2023/03/15 06:35:52;;;;;;;;;;;0.40;99.90;;;;;;5069029;28;19992;-70
2023/03/15 06:38:21;;;;;;;;;;;0.40;99.90;;;;;;5053716;28;19943;-69
2023/03/15 06:40:47;;;;;;;;;;;0.40;99.90;;;;;;5049070;28;19952;-70
2023/03/15 06:43:18;;;;;;;;;;;0.50;99.90;;;;;;5046369;28;19920;-69
2023/03/15 06:45:46;;;;;;;;;;;0.50;99.90;;;;;;5046008;28;19963;-69
2023/03/15 06:48:13;;;;;;;;;;;0.50;99.90;;;;;;5046325;28;19927;-70
2023/03/15 06:50:39;;;;;;;;;;;0.60;99.90;;;;;;5046301;28;19921;-70
2023/03/15 06:53:06;;;;;;;;;;;0.60;99.90;;;;;;5046675;28;19944;-70
2023/03/15 06:55:33;;;;;;;;;;;0.60;99.90;;;;;;5046197;28;20228;-70
2023/03/15 06:57:59;;;;;;;;;;;0.70;99.90;;;;;;5045662;28;19959;-70
2023/03/15 07:00:26;;;;;;;;;;;0.70;99.90;;;;;;5046423;28;19984;-70
2023/03/15 07:02:54;;;;;;;;;;;0.70;99.90;;;;;;5046515;28;19928;-70
2023/03/15 07:05:20;;;;;;;;;;;0.70;99.90;;;;;;5046345;28;19921;-70
2023/03/15 07:07:47;;;;;;;;;;;0.80;99.90;;;;;;5045774;28;19984;-70
2023/03/15 07:10:13;;;;;;;;;;;0.80;99.90;;;;;;5045957;28;19959;-70
2023/03/15 07:12:40;;;;;;;;;;;0.90;99.90;;;;;;5045995;28;19959;-70
2023/03/15 07:15:07;;;;;;;;;;;1.00;99.90;;;;;;5046110;28;20004;-70
2023/03/15 07:17:34;;;;;;;;;;;1.10;99.90;;;;;;5045106;28;19927;-70
2023/03/15 07:20:04;;;;;;;;;;;1.10;99.90;;;;;;5046050;28;20000;-69
2023/03/15 07:22:31;;;;;;;;;;;1.10;99.90;;;;;;5046135;28;19921;-70
2023/03/15 07:24:57;;;;;;;;;;;1.10;99.90;;;;;;5045689;28;19952;-70
2023/03/15 07:27:24;;;;;;;;;;;1.10;99.90;;;;;;5045697;28;19921;-70
2023/03/15 07:29:51;;;;;;;;;;;1.10;99.90;;;;;;5045959;28;20112;-70
2023/03/15 07:32:18;;;;;;;;;;;1.10;99.90;;;;;;5045901;28;19921;-70
2023/03/15 07:34:44;;;;;;;;;;;1.20;99.90;;;;;;5045607;28;19928;-70
2023/03/15 07:37:12;;;;;;;;;;;1.20;99.90;;;;;;5044730;28;20181;-70
2023/03/15 07:39:40;;;;;;;;;;;1.30;99.90;;;;;;5045448;28;20239;-71
2023/03/15 07:42:07;;;;;;;;;;;1.20;99.90;;;;;;5045442;28;19945;-70
2023/03/15 07:44:33;;;;;;;;;;;1.30;99.90;;;;;;5045615;28;19921;-70
2023/03/15 07:47:00;;;;;;;;;;;1.20;99.90;;;;;;5045161;28;19983;-70
2023/03/15 07:49:26;;;;;;;;;;;1.20;99.90;;;;;;5045252;28;19960;-70
2023/03/15 07:51:53;;;;;;;;;;;1.20;99.90;;;;;;5045534;28;19927;-70
2023/03/15 07:54:21;;;;;;;;;;;1.30;99.90;;;;;;5044150;28;19983;-70
2023/03/15 07:56:48;;;;;;;;;;;1.30;99.90;;;;;;5043981;28;19927;-70
2023/03/15 07:59:15;;;;;;;;;;;1.30;99.90;;;;;;5045220;28;20000;-71
2023/03/15 08:01:41;;;;;;;;;;;1.30;99.90;;;;;;5045268;28;20443;-70
2023/03/15 08:04:08;;;;;;;;;;;1.40;99.90;;;;;;5045189;28;19988;-70
2023/03/15 08:06:34;;;;;;;;;;;1.50;99.90;;;;;;5045272;28;19921;-70
2023/03/15 08:09:04;;;;;;;;;;;1.50;99.90;;;;;;5045054;28;20117;-70
2023/03/15 08:11:32;;;;;;;;;;;1.50;99.90;;;;;;5044665;28;20205;-70
2023/03/15 08:13:59;;;;;;;;;;;1.60;99.90;;;;;;5045039;28;19928;-70
2023/03/15 08:16:25;;;;;;;;;;;1.60;99.90;;;;;;5044246;28;19996;-70
2023/03/15 08:18:52;;;;;;;;;;;1.60;99.90;;;;;;5044607;28;20209;-70
2023/03/15 08:21:18;;;;;;;;;;;1.70;99.90;;;;;;5044580;28;19952;-70
2023/03/15 08:23:45;;;;;;;;;;;1.70;99.90;;;;;;5044659;28;19988;-70
2023/03/15 08:26:12;;;;;;;;;;;1.80;99.90;;;;;;5047932;28;19927;-70
2023/03/15 08:28:40;;;;;;;;;;;1.80;99.90;;;;;;5064296;28;19991;-70
2023/03/15 08:31:07;;;;;;;;;;;1.80;99.90;;;;;;5064508;28;20007;-68
2023/03/15 08:33:34;;;;;;;;;;;1.90;99.90;;;;;;5064482;28;19925;-70
2023/03/15 08:36:00;;;;;;;;;;;2.00;99.90;;;;;;5063656;28;19992;-70
2023/03/15 08:38:27;;;;;;;;;;;2.00;99.90;;;;;;5064264;28;20089;-70
2023/03/15 08:40:55;;;;;;;;;;;1.90;99.90;;;;;;5064576;28;19927;-70
2023/03/15 08:43:22;;;;;;;;;;;2.10;99.90;;;;;;5064091;28;19988;-70
2023/03/15 08:45:50;;;;;;;;;;;2.20;99.90;;;;;;5063931;28;19920;-70
2023/03/15 08:48:17;;;;;;;;;;;2.20;99.90;;;;;;5063993;28;20120;-70
2023/03/15 08:50:44;;;;;;;;;;;2.20;99.90;;;;;;5064017;28;19992;-70
2023/03/15 08:53:10;;;;;;;;;;;2.30;99.90;;;;;;5063973;28;19925;-70
2023/03/15 08:55:37;;;;;;;;;;;2.30;99.90;;;;;;5063705;28;20212;-71
2023/03/15 08:58:04;;;;;;;;;;;2.30;99.90;;;;;;5063766;28;19925;-70
2023/03/15 09:00:31;;;;;;;;;;;2.30;99.90;;;;;;5063700;28;19921;-70
2023/03/15 09:03:00;;;;;;;;;;;2.30;99.90;;;;;;5064108;28;19927;-70
2023/03/15 09:05:27;;;;;;;;;;;2.30;99.90;;;;;;5063642;28;19920;-70
2023/03/15 09:07:54;;;;;;;;;;;2.40;99.90;;;;;;5063479;28;19962;-70
2023/03/15 09:10:21;;;;;;;;;;;2.40;99.90;;;;;;5063987;28;19993;-70
2023/03/15 09:12:49;;;;;;;;;;;2.40;99.90;;;;;;5063644;28;19927;-70
2023/03/15 09:15:16;;;;;;;;;;;2.50;99.90;;;;;;5064046;28;19920;-69
2023/03/15 09:17:43;;;;;;;;;;;2.60;99.90;;;;;;5063649;28;19921;-70
2023/03/15 09:20:15;;;;;;;;;;;2.60;99.90;;;;;;5063405;28;19927;-70
2023/03/15 09:22:41;;;;;;;;;;;2.70;99.90;;;;;;5063836;28;19952;-70
2023/03/15 09:25:09;;;;;;;;;;;2.80;99.90;;;;;;5063767;28;20161;-70
2023/03/15 09:27:36;;;;;;;;;;;2.90;99.90;;;;;;5062863;28;19920;-70
2023/03/15 09:30:03;;;;;;;;;;;3.00;99.90;;;;;;5063705;28;19921;-70
2023/03/15 09:32:34;;;;;;;;;;;3.10;99.90;;;;;;5063571;28;19927;-70
2023/03/15 09:35:01;;;;;;;;;;;3.20;99.90;;;;;;5063631;28;19921;-70
2023/03/15 09:37:29;;;;;;;;;;;3.20;99.90;;;;;;5063156;28;20385;-70
2023/03/15 09:39:56;;;;;;;;;;;3.10;99.90;;;;;;5063187;28;20267;-71
2023/03/15 09:42:24;;;;;;;;;;;3.00;99.90;;;;;;5063645;28;19952;-70
2023/03/15 09:44:56;;;;;;;;;;;3.00;99.90;;;;;;5063595;28;19921;-70
2023/03/15 09:47:28;;;;;;;;;;;3.10;99.90;;;;;;5063012;28;19925;-71
2023/03/15 09:49:57;;;;;;;;;;;3.20;99.90;;;;;;5058583;28;21629;-70
2023/03/15 09:52:30;;;;;;;;;;;3.20;99.90;;;;;;5062935;28;19967;-70
2023/03/15 09:55:00;;;;;;;;;;;3.10;99.90;;;;;;5063409;28;19927;-70
2023/03/15 09:57:33;;;;;;;;;;;3.00;99.90;;;;;;5062601;28;20403;-70
2023/03/15 10:00:03;;;;;;;;;;;3.00;99.90;;;;;;5063496;28;19984;-70
2023/03/15 10:02:31;;;;;;;;;;;3.10;99.90;;;;;;5063545;28;19959;-70
2023/03/15 10:04:59;;;;;;;;;;;3.00;99.90;;;;;;5056519;28;20201;-70
2023/03/15 10:07:26;;;;;;;;;;;3.10;99.90;;;;;;5043129;28;20146;-70
2023/03/15 10:09:53;;;;;;;;;;;3.00;99.90;;;;;;5043314;28;20172;-70
2023/03/15 10:12:25;;;;;;;;;;;3.00;99.90;;;;;;5043245;28;19928;-70
2023/03/15 10:14:59;;;;;;;;;;;3.10;99.90;;;;;;5043429;28;19921;-71
2023/03/15 10:17:32;;;;;;;;;;;3.10;99.90;;;;;;5044308;28;19959;-71
2023/03/15 10:20:00;;;;;;;;;;;3.10;99.90;;;;;;5047275;28;19921;-71
2023/03/15 10:22:29;;;;;;;;;;;3.10;99.90;;;;;;5047167;28;19921;-70
2023/03/15 10:24:59;;;;;;;;;;;3.10;99.90;;;;;;5053356;28;19935;-71
2023/03/15 10:27:31;;;;;;;;;;;3.20;99.90;;;;;;5066091;28;19921;-70
2023/03/15 10:29:59;;;;;;;;;;;3.20;99.90;;;;;;5067108;28;19988;-69
2023/03/15 10:32:28;;;;;;;;;;;3.20;99.90;;;;;;5066679;28;20342;-70
2023/03/15 10:34:56;;;;;;;;;;;3.30;99.90;;;;;;5066721;28;19921;-70
2023/03/15 10:37:23;;;;;;;;;;;3.20;99.90;;;;;;5065935;28;19960;-71
2023/03/15 10:39:57;;;;;;;;;;;3.10;99.90;;;;;;5066398;28;20266;-71
2023/03/15 10:42:30;;;;;;;;;;;3.00;99.90;;;;;;5066596;28;19928;-70
2023/03/15 10:44:57;;;;;;;;;;;3.10;99.90;;;;;;5066639;28;20207;-70
2023/03/15 10:47:24;;;;;;;;;;;3.00;99.90;;;;;;5065777;28;20260;-70
2023/03/15 10:49:55;;;;;;;;;;;3.00;99.90;;;;;;5066656;28;19991;-70
2023/03/15 10:52:27;;;;;;;;;;;3.00;99.90;;;;;;5066564;28;19952;-71
2023/03/15 10:54:54;;;;;;;;;;;3.10;99.90;;;;;;5066088;28;20264;-70
2023/03/15 10:57:28;;;;;;;;;;;3.10;99.90;;;;;;5065819;28;19927;-70
2023/03/15 10:59:57;;;;;;;;;;;3.00;99.90;;;;;;5066328;28;19920;-71
2023/03/15 11:02:25;;;;;;;;;;;3.00;99.90;;;;;;5066357;28;19927;-70
2023/03/15 11:04:59;;;;;;;;;;;3.10;99.90;;;;;;5066174;28;20227;-70
2023/03/15 11:07:26;;;;;;;;;;;3.10;99.90;;;;;;5065034;28;20140;-70
2023/03/15 11:09:54;;;;;;;;;;;3.10;99.90;;;;;;5065866;28;19921;-70
2023/03/15 11:12:23;;;;;;;;;;;3.00;99.90;;;;;;5065896;28;19921;-70
2023/03/15 11:14:50;;;;;;;;;;;3.00;99.90;;;;;;5066103;28;19921;-70
2023/03/15 11:17:19;;;;;;;;;;;3.00;99.90;;;;;;5065397;28;19944;-70
2023/03/15 11:19:50;;;;;;;;;;;3.00;99.90;;;;;;5066031;28;19921;-70
2023/03/15 11:22:16;;;;;;;;;;;2.90;99.90;;;;;;5066273;28;19927;-70
2023/03/15 11:24:43;;;;;;;;;;;2.80;99.90;;;;;;5065952;28;19967;-71
2023/03/15 11:27:11;;;;;;;;;;;2.80;99.90;;;;;;5065260;28;19988;-70
2023/03/15 11:29:38;;;;;;;;;;;2.70;99.90;;;;;;5065333;28;19927;-70
2023/03/15 11:32:12;;;;;;;;;;;2.60;99.90;;;;;;5065883;28;19920;-70
2023/03/15 11:34:41;;;;;;;;;;;2.60;99.90;;;;;;5065846;28;20340;-70
2023/03/15 11:37:12;;;;;;;;;;;2.50;99.90;;;;;;5065211;28;19921;-71
2023/03/15 11:39:43;;;;;;;;;;;2.40;99.90;;;;;;5065631;28;19988;-71
2023/03/15 11:42:13;;;;;;;;;;;2.50;99.90;;;;;;5064712;28;19924;-70
2023/03/15 11:44:43;;;;;;;;;;;2.40;99.90;;;;;;5065540;28;19989;-72
2023/03/15 11:47:12;;;;;;;;;;;2.30;99.90;;;;;;5064977;28;19927;-70
2023/03/15 11:49:45;;;;;;;;;;;2.20;99.90;;;;;;5065323;28;20157;-70
2023/03/15 11:52:12;;;;;;;;;;;2.20;99.90;;;;;;5065345;28;19984;-70
2023/03/15 11:54:38;;;;;;;;;;;2.10;99.90;;;;;;5065085;28;20271;-70
2023/03/15 11:57:06;;;;;;;;;;;2.00;99.90;;;;;;5064783;28;19921;-70
2023/03/15 11:59:33;;;;;;;;;;;1.90;99.90;;;;;;5065361;28;19967;-69
2023/03/15 12:02:01;;;;;;;;;;;1.80;99.90;;;;;;5064990;28;19921;-70
2023/03/15 12:04:38;;;;;;;;;;;1.80;99.90;;;;;;5064846;28;19920;-70
2023/03/15 12:07:11;;;;;;;;;;;1.80;99.90;;;;;;5064359;28;19984;-70
2023/03/15 12:09:40;;;;;;;;;;;1.90;99.90;;;;;;5064988;28;19927;-68
2023/03/15 12:12:27;;;;;;;;;;;2.00;99.90;;;;;;5064656;28;19920;-70
2023/03/15 12:15:02;;;;;;;;;;;2.10;99.90;;;;;;5064672;28;20185;-70
2023/03/15 12:17:41;;;;;;;;;;;2.20;99.90;;;;;;5064435;28;20108;-70
2023/03/15 12:20:13;;;;;;;;;;;2.20;99.90;;;;;;5064897;28;19921;-70
2023/03/15 12:22:41;;;;;;;;;;;2.30;99.90;;;;;;5064363;28;19920;-70
2023/03/15 12:25:12;;;;;;;;;;;2.40;99.90;;;;;;5063634;28;19927;-70
2023/03/15 12:27:40;;;;;;;;;;;2.40;99.90;;;;;;5063545;28;19987;-70
2023/03/15 12:30:17;;;;;;;;;;;2.40;99.90;;;;;;5064640;28;20115;-70
2023/03/15 12:32:47;;;;;;;;;;;2.40;99.90;;;;;;5064481;28;19927;-70
2023/03/15 12:35:18;;;;;;;;;;;2.30;99.90;;;;;;5064463;28;19936;-70
2023/03/15 12:37:46;;;;;;;;;;;2.30;99.90;;;;;;5043918;28;19921;-70
2023/03/15 12:40:31;;;;;;;;;;;2.10;99.90;;;;;;5043897;28;19921;-70
2023/03/15 12:43:00;;;;;;;;;;;2.10;99.90;;;;;;5044511;28;19921;-70
2023/03/15 12:45:50;;;;;;;;;;;2.20;99.90;;;;;;5044189;28;19921;-74
2023/03/15 12:48:22;;;;;;;;;;;2.10;99.90;;;;;;5044047;28;20139;-70
2023/03/15 12:50:51;;;;;;;;;;;2.20;99.90;;;;;;5062991;28;19927;-70
2023/03/15 12:53:21;;;;;;;;;;;2.20;99.90;;;;;;5048838;28;19921;-70
2023/03/15 12:55:48;;;;;;;;;;;2.30;99.90;;;;;;5045182;28;19924;-70
2023/03/15 12:58:16;;;;;;;;;;;2.30;99.90;;;;;;5043887;28;19920;-70
2023/03/15 13:00:43;;;;;;;;;;;2.30;99.90;;;;;;5044032;28;20115;-70
2023/03/15 13:03:15;;;;;;;;;;;2.30;99.90;;;;;;5059492;28;19927;-70
2023/03/15 13:05:50;;;;;;;;;;;2.30;99.90;;;;;;5063510;28;19920;-70
2023/03/15 13:08:19;;;;;;;;;;;2.30;99.90;;;;;;5063811;28;19949;-70
2023/03/15 13:10:58;;;;;;;;;;;2.40;99.90;;;;;;5064118;28;19921;-70
2023/03/15 13:13:35;;;;;;;;;;;2.40;99.90;;;;;;5060541;28;19927;-70
2023/03/15 13:16:14;;;;;;;;;;;2.50;99.90;;;;;;5055260;28;19921;-71
2023/03/15 13:18:44;;;;;;;;;;;2.60;99.90;;;;;;5043944;28;20005;-70
2023/03/15 13:21:15;;;;;;;;;;;2.80;99.90;;;;;;5043900;28;20121;-70
2023/03/15 13:23:43;;;;;;;;;;;2.90;99.90;;;;;;5044011;28;20004;-70
2023/03/15 13:26:22;;;;;;;;;;;2.90;99.90;;;;;;5043236;28;19921;-70
2023/03/15 13:28:51;;;;;;;;;;;2.90;99.90;;;;;;5043863;28;19959;-70
2023/03/15 13:31:20;;;;;;;;;;;2.80;99.90;;;;;;5043822;28;19921;-70
2023/03/15 13:33:47;;;;;;;;;;;2.70;99.90;;;;;;5043583;28;19997;-69
2023/03/15 13:36:15;;;;;;;;;;;2.70;99.90;;;;;;5062127;28;19948;-70
2023/03/15 13:38:43;;;;;;;;;;;2.60;99.90;;;;;;5063663;28;19927;-70
2023/03/15 13:41:16;;;;;;;;;;;2.60;99.90;;;;;;5063289;28;19921;-69
2023/03/15 13:43:43;;;;;;;;;;;2.50;99.90;;;;;;5063575;28;19927;-70
2023/03/15 13:46:10;;;;;;;;;;;2.50;99.90;;;;;;5048507;28;19921;-70
2023/03/15 13:48:39;;;;;;;;;;;2.50;99.90;;;;;;5049675;28;20209;-70
2023/03/15 13:51:09;;;;;;;;;;;2.60;99.90;;;;;;5060380;28;19928;-69
2023/03/15 13:53:38;;;;;;;;;;;2.50;99.90;;;;;;5067047;28;19987;-70
2023/03/15 13:56:06;;;;;;;;;;;2.50;99.90;;;;;;5067140;28;20004;-70
2023/03/15 13:58:33;;;;;;;;;;;2.60;99.90;;;;;;5067394;28;19958;-69
2023/03/15 14:01:02;;;;;;;;;;;2.60;99.90;;;;;;5067405;28;19927;-70
2023/03/15 14:03:28;;;;;;;;;;;2.70;99.90;;;;;;5067037;28;19921;-70
2023/03/15 14:05:56;;;;;;;;;;;2.70;99.90;;;;;;5066763;28;19960;-70
2023/03/15 14:08:24;;;;;;;;;;;2.70;99.90;;;;;;5066743;28;20230;-69
2023/03/15 14:10:59;;;;;;;;;;;2.70;99.90;;;;;;5067392;28;19921;-70
2023/03/15 14:13:27;;;;;;;;;;;2.70;99.90;;;;;;5066884;28;19983;-70
2023/03/15 14:15:58;;;;;;;;;;;2.70;99.90;;;;;;5066860;28;19936;-70
2023/03/15 14:18:25;;;;;;;;;;;2.70;99.90;;;;;;5066559;28;19921;-70
2023/03/15 14:20:54;;;;;;;;;;;2.70;99.90;;;;;;5060261;28;19921;-70
2023/03/15 14:23:22;;;;;;;;;;;2.70;99.90;;;;;;5047195;28;20008;-70
2023/03/15 14:25:50;;;;;;;;;;;2.80;99.90;;;;;;5046391;28;19983;-70
2023/03/15 14:28:19;;;;;;;;;;;2.80;99.90;;;;;;5046145;28;19929;-69
2023/03/15 14:30:51;;;;;;;;;;;2.80;99.90;;;;;;5046654;28;20171;-70
2023/03/15 14:33:26;;;;;;;;;;;2.90;99.90;;;;;;5046650;28;20089;-70
2023/03/15 14:35:54;;;;;;;;;;;2.90;99.90;;;;;;5046374;28;20267;-71